createdAt,value
2023-12-12T00:01:59.645Z,-0.68
2023-12-12T00:04:30.120Z,-0.42
2023-12-12T00:07:00.846Z,-0.73
2023-12-12T00:09:31.160Z,-0.93
2023-12-12T00:12:01.670Z,-0.72
2023-12-12T00:14:34.803Z,-0.82
2023-12-12T00:17:05.614Z,-0.93
2023-12-12T00:19:36.519Z,-1.21
2023-12-12T00:22:07.450Z,-1.41
2023-12-12T00:24:37.792Z,-1.50
2023-12-12T00:27:08.488Z,-1.58
2023-12-12T00:29:42.222Z,-1.62
2023-12-12T00:32:12.588Z,-1.44
2023-12-12T00:34:44.286Z,-1.34
2023-12-12T00:37:15.294Z,-1.36
2023-12-12T00:39:45.729Z,-1.39
2023-12-12T00:42:16.236Z,-1.38
2023-12-12T00:44:49.183Z,-1.31
2023-12-12T00:47:19.770Z,-1.14
2023-12-12T00:49:50.444Z,-1.02
2023-12-12T00:52:21.785Z,-1.07
2023-12-12T00:54:53.119Z,-1.19
2023-12-12T00:57:27.261Z,-1.31
2023-12-12T01:00:00.815Z,-1.15
2023-12-12T01:02:31.845Z,-1.20
2023-12-12T01:05:02.605Z,-1.29
2023-12-12T01:07:34.437Z,-1.29
2023-12-12T01:10:06.265Z,-1.37
2023-12-12T01:12:36.624Z,-1.27
2023-12-12T01:15:10.931Z,-1.28
2023-12-12T01:17:41.431Z,-1.33
2023-12-12T01:20:12.834Z,-0.91
2023-12-12T01:22:43.195Z,-1.12
2023-12-12T01:25:14.794Z,-1.18
2023-12-12T01:27:45.907Z,-0.93
2023-12-12T01:30:19.034Z,-1.07
2023-12-12T01:32:49.417Z,-1.12
2023-12-12T01:35:19.895Z,-1.44
2023-12-12T01:37:50.371Z,-1.66
2023-12-12T01:40:21.089Z,-1.79
2023-12-12T01:42:51.689Z,-1.88
2023-12-12T01:45:25.763Z,-1.86
2023-12-12T01:47:56.115Z,-1.90
2023-12-12T01:50:26.526Z,-1.96
2023-12-12T01:52:57.049Z,-1.92
2023-12-12T01:55:27.658Z,-1.96
2023-12-12T01:57:58.174Z,-1.99
2023-12-12T02:00:30.973Z,-2.07
2023-12-12T02:03:01.893Z,-2.14
2023-12-12T02:05:33.079Z,-2.20
2023-12-12T02:08:01.438Z,-2.19
2023-12-12T02:10:31.747Z,-2.22
2023-12-12T02:13:02.027Z,-2.15
2023-12-12T02:15:35.015Z,-2.15
2023-12-12T02:18:05.330Z,-1.98
2023-12-12T02:20:35.599Z,-2.06
2023-12-12T02:23:09.364Z,-1.98
2023-12-12T02:25:40.116Z,-1.60
2023-12-12T02:28:11.094Z,-1.64
2023-12-12T02:30:44.222Z,-1.77
2023-12-12T02:33:14.704Z,-1.74
2023-12-12T02:35:44.946Z,-1.84
2023-12-12T02:38:17.791Z,-2.04
2023-12-12T02:40:48.200Z,-1.77
2023-12-12T02:43:18.459Z,-1.97
2023-12-12T02:45:48.846Z,-2.07
2023-12-12T02:48:20.572Z,-1.68
2023-12-12T02:50:50.818Z,-1.60
2023-12-12T02:53:23.623Z,-1.58
2023-12-12T02:55:53.857Z,-1.47
2023-12-12T02:58:24.162Z,-1.22
2023-12-12T03:00:54.583Z,-1.15
2023-12-12T03:03:24.895Z,-1.28
2023-12-12T03:05:55.195Z,-1.03
2023-12-12T03:08:28.014Z,-1.33
2023-12-12T03:10:58.183Z,-1.35
2023-12-12T03:13:28.467Z,-1.42
2023-12-12T03:15:58.733Z,-1.60
2023-12-12T03:18:28.998Z,-1.21
2023-12-12T03:21:01.365Z,-1.24
2023-12-12T03:23:34.173Z,-1.27
2023-12-12T03:26:09.799Z,-1.45
2023-12-12T03:28:40.301Z,-1.23
2023-12-12T03:31:10.821Z,-1.26
2023-12-12T03:33:41.087Z,-1.17
2023-12-12T03:36:12.305Z,-1.06
2023-12-12T03:38:45.193Z,-1.14
2023-12-12T03:41:15.868Z,-1.31
2023-12-12T03:43:46.070Z,-1.34
2023-12-12T03:46:16.700Z,-1.54
2023-12-12T03:48:47.040Z,-1.71
2023-12-12T03:51:17.304Z,-1.69
2023-12-12T03:53:50.151Z,-1.40
2023-12-12T03:56:20.312Z,-1.04
2023-12-12T03:58:50.634Z,-1.02
2023-12-12T04:01:21.121Z,-1.10
2023-12-12T04:03:51.476Z,-0.88
2023-12-12T04:06:21.841Z,-1.15
2023-12-12T04:08:54.713Z,-1.25
2023-12-12T04:11:24.852Z,-1.48
2023-12-12T04:13:55.320Z,-1.41
2023-12-12T04:16:25.578Z,-1.34
2023-12-12T04:18:55.999Z,-1.35
2023-12-12T04:21:26.292Z,-1.05
2023-12-12T04:23:59.158Z,-0.71
2023-12-12T04:26:32.151Z,-0.83
2023-12-12T04:29:02.765Z,-1.18
2023-12-12T04:31:33.261Z,-1.27
2023-12-12T04:34:03.659Z,-1.42
2023-12-12T04:36:34.563Z,-1.28
2023-12-12T04:39:09.670Z,-1.13
2023-12-12T04:41:43.533Z,-1.09
2023-12-12T04:44:13.996Z,-1.15
2023-12-12T04:46:44.322Z,-1.28
2023-12-12T04:49:14.874Z,-1.18
2023-12-12T04:51:45.208Z,-1.06
2023-12-12T04:54:18.109Z,-0.98
2023-12-12T04:56:48.373Z,-1.06
2023-12-12T04:59:18.753Z,-1.11
2023-12-12T05:01:49.127Z,-1.15
2023-12-12T05:04:19.462Z,-1.14
2023-12-12T05:06:50.592Z,-1.00
2023-12-12T05:09:23.627Z,-0.88
2023-12-12T05:11:53.833Z,-0.99
2023-12-12T05:14:24.059Z,-1.12
2023-12-12T05:17:01.313Z,-1.24
2023-12-12T05:19:38.668Z,-1.31
2023-12-12T05:22:09.131Z,-1.25
2023-12-12T05:24:41.942Z,-1.34
2023-12-12T05:27:12.182Z,-1.40
2023-12-12T05:29:42.362Z,-1.45
2023-12-12T05:32:12.642Z,-1.50
2023-12-12T05:34:43.061Z,-1.54
2023-12-12T05:37:13.322Z,-1.43
2023-12-12T05:39:47.861Z,-1.46
2023-12-12T05:42:18.252Z,-1.55
2023-12-12T05:44:48.456Z,-1.59
2023-12-12T05:47:18.654Z,-1.63
2023-12-12T05:49:49.019Z,-1.62
2023-12-12T05:52:19.414Z,-1.57
2023-12-12T05:54:52.337Z,-1.52
2023-12-12T05:57:22.709Z,-1.58
2023-12-12T05:59:53.359Z,-1.68
2023-12-12T06:02:23.769Z,-1.72
2023-12-12T06:04:54.079Z,-1.61
2023-12-12T06:07:24.555Z,-1.66
2023-12-12T06:09:57.527Z,-1.71
2023-12-12T06:12:28.573Z,-1.65
2023-12-12T06:14:58.849Z,-1.75
2023-12-12T06:17:29.300Z,-1.80
2023-12-12T06:19:59.781Z,-1.65
2023-12-12T06:22:30.106Z,-1.76
2023-12-12T06:25:03.394Z,-1.81
2023-12-12T06:27:34.070Z,-1.84
2023-12-12T06:30:04.510Z,-1.75
2023-12-12T06:32:34.792Z,-1.83
2023-12-12T06:35:05.909Z,-1.94
2023-12-12T06:37:36.598Z,-2.03
2023-12-12T06:40:14.416Z,-2.04
2023-12-12T06:42:45.157Z,-1.97
2023-12-12T06:45:15.360Z,-1.92
2023-12-12T06:47:46.028Z,-1.89
2023-12-12T06:50:16.394Z,-1.84
2023-12-12T06:52:46.653Z,-1.72
2023-12-12T06:55:19.986Z,-1.65
2023-12-12T06:57:50.428Z,-1.64
2023-12-12T07:00:21.501Z,-1.50
2023-12-12T07:02:51.815Z,-1.48
2023-12-12T07:05:22.105Z,-1.15
2023-12-12T07:07:52.537Z,-1.14
2023-12-12T07:10:25.523Z,-1.13
2023-12-12T07:15:41.587Z,-1.04
2023-12-12T07:18:14.339Z,-0.94
2023-12-12T07:20:45.591Z,-0.92
2023-12-12T07:23:18.202Z,-0.92
2023-12-12T07:25:51.235Z,-0.85
2023-12-12T07:28:22.426Z,-0.78
2023-12-12T07:30:52.740Z,-0.73
2023-12-12T07:33:23.153Z,-0.67
2023-12-12T07:35:53.436Z,-0.60
2023-12-12T07:38:25.126Z,-0.54
2023-12-12T07:41:00.597Z,-0.54
2023-12-12T07:43:31.257Z,-0.39
2023-12-12T07:46:01.663Z,-0.40
2023-12-12T07:48:35.001Z,-0.40
2023-12-12T07:51:06.164Z,-0.22
2023-12-12T07:53:36.838Z,0.02
2023-12-12T07:56:11.174Z,0.25
2023-12-12T07:58:41.882Z,0.52
2023-12-12T08:01:12.319Z,0.59
2023-12-12T08:03:43.212Z,0.51
2023-12-12T08:06:14.525Z,0.26
2023-12-12T08:08:44.837Z,0.59
2023-12-12T08:11:19.046Z,0.85
2023-12-12T08:13:49.398Z,1.02
2023-12-12T08:16:19.774Z,1.05
2023-12-12T08:18:50.209Z,1.23
2023-12-12T08:21:21.492Z,1.16
2023-12-12T08:23:52.976Z,1.24
2023-12-12T08:26:26.457Z,1.16
2023-12-12T08:28:56.929Z,1.11
2023-12-12T08:31:27.624Z,1.20
2023-12-12T08:33:58.062Z,1.09
2023-12-12T08:36:28.449Z,1.32
2023-12-12T08:38:59.703Z,1.59
2023-12-12T08:41:32.860Z,1.53
2023-12-12T08:44:03.757Z,1.52
2023-12-12T08:46:34.140Z,1.54
2023-12-12T08:49:04.810Z,1.69
2023-12-12T08:51:36.297Z,1.81
2023-12-12T08:54:07.310Z,1.88
2023-12-12T08:56:43.866Z,1.84
2023-12-12T08:59:14.065Z,1.85
2023-12-12T09:01:44.550Z,2.03
2023-12-12T09:04:18.204Z,2.18
2023-12-12T09:06:48.671Z,2.60
2023-12-12T09:09:19.367Z,2.71
2023-12-12T09:11:52.507Z,2.98
2023-12-12T09:14:22.842Z,2.95
2023-12-12T09:16:53.635Z,3.16
2023-12-12T09:19:24.378Z,3.12
2023-12-12T09:21:55.821Z,3.27
2023-12-12T09:24:26.243Z,3.32
2023-12-12T09:26:59.395Z,3.41
2023-12-12T09:29:29.792Z,3.52
2023-12-12T09:32:00.745Z,3.68
2023-12-12T09:34:31.201Z,3.58
2023-12-12T09:37:01.846Z,3.49
2023-12-12T09:39:32.201Z,3.66
2023-12-12T09:42:07.015Z,3.61
2023-12-12T09:44:37.935Z,3.66
2023-12-12T09:47:08.738Z,3.91
2023-12-12T09:49:40.827Z,4.06
2023-12-12T09:52:11.656Z,4.50
2023-12-12T09:54:57.307Z,5.05
2023-12-12T09:57:31.799Z,5.14
2023-12-12T10:00:02.600Z,5.14
2023-12-12T10:02:38.468Z,5.48
2023-12-12T10:05:11.069Z,5.50
2023-12-12T10:07:41.713Z,5.70
2023-12-12T10:10:18.469Z,5.80
2023-12-12T10:12:51.581Z,5.95
2023-12-12T10:15:26.861Z,5.96
2023-12-12T10:17:59.311Z,6.01
2023-12-12T10:20:30.567Z,6.13
2023-12-12T10:23:05.141Z,6.23
2023-12-12T10:25:37.370Z,6.40
2023-12-12T10:28:10.344Z,6.45
2023-12-12T10:30:42.251Z,6.50
2023-12-12T10:33:15.830Z,6.57
2023-12-12T10:35:48.912Z,6.64
2023-12-12T10:38:19.186Z,6.58
2023-12-12T10:40:50.368Z,6.77
2023-12-12T10:43:23.429Z,6.51
2023-12-12T10:45:54.604Z,6.71
2023-12-12T10:48:26.151Z,6.78
2023-12-12T10:50:57.577Z,6.97
2023-12-12T10:53:28.165Z,6.76
2023-12-12T10:56:00.140Z,6.55
2023-12-12T10:58:33.219Z,6.63
2023-12-12T11:01:04.952Z,6.38
2023-12-12T11:03:36.642Z,6.46
2023-12-12T11:06:08.185Z,6.59
2023-12-12T11:08:38.760Z,6.60
2023-12-12T11:11:12.311Z,6.77
2023-12-12T11:13:47.225Z,6.83
2023-12-12T11:16:17.831Z,7.14
2023-12-12T11:18:50.671Z,7.50
2023-12-12T11:21:56.783Z,7.20
2023-12-12T11:25:02.117Z,7.25
2023-12-12T11:27:32.750Z,7.12
2023-12-12T11:30:06.846Z,7.01
2023-12-12T11:32:37.758Z,6.90
2023-12-12T11:35:08.512Z,6.82
2023-12-12T11:37:45.434Z,6.80
2023-12-12T11:40:15.778Z,6.70
2023-12-12T11:42:47.713Z,6.65
2023-12-12T11:45:33.172Z,6.73
2023-12-12T11:48:05.086Z,6.64
2023-12-12T11:50:37.101Z,6.60
2023-12-12T11:53:07.663Z,6.76
2023-12-12T11:55:44.641Z,6.91
2023-12-12T11:58:16.096Z,6.75
2023-12-12T12:00:49.031Z,6.86
2023-12-12T12:03:19.340Z,6.69
2023-12-12T12:05:49.813Z,6.68
2023-12-12T12:08:22.116Z,6.56
2023-12-12T12:10:59.309Z,6.45
2023-12-12T12:13:41.365Z,6.43
2023-12-12T12:16:15.488Z,6.26
2023-12-12T12:18:46.172Z,6.22
2023-12-12T12:21:16.516Z,6.34
2023-12-12T12:23:46.814Z,6.37
2023-12-12T12:26:17.099Z,6.50
2023-12-12T12:28:47.390Z,6.65
2023-12-12T12:31:31.047Z,6.68
2023-12-12T12:34:01.374Z,6.81
2023-12-12T12:36:40.702Z,6.67
2023-12-12T12:39:11.281Z,6.71
2023-12-12T12:41:41.656Z,6.65
2023-12-12T12:44:12.024Z,6.63
2023-12-12T12:46:51.539Z,6.71
2023-12-12T12:49:22.017Z,6.48
2023-12-12T12:51:52.980Z,6.33
2023-12-12T12:54:23.275Z,6.33
2023-12-12T12:56:53.757Z,6.35
2023-12-12T12:59:24.061Z,6.32
2023-12-12T13:01:57.050Z,6.12
2023-12-12T13:04:27.378Z,6.14
2023-12-12T13:06:57.726Z,6.41
2023-12-12T13:09:29.206Z,6.56
2023-12-12T13:12:00.165Z,6.44
2023-12-12T13:14:30.389Z,6.44
2023-12-12T13:17:04.678Z,6.37
2023-12-12T13:19:35.118Z,6.38
2023-12-12T13:22:05.728Z,6.38
2023-12-12T13:24:36.201Z,6.35
2023-12-12T13:27:06.850Z,6.30
2023-12-12T13:29:37.119Z,6.23
2023-12-12T13:32:10.663Z,6.45
2023-12-12T13:34:40.968Z,6.39
2023-12-12T13:37:11.258Z,6.01
2023-12-12T13:39:41.552Z,5.81
2023-12-12T13:42:11.882Z,5.93
2023-12-12T13:44:42.940Z,5.91
2023-12-12T13:47:16.450Z,5.89
2023-12-12T13:49:46.845Z,5.85
2023-12-12T13:52:17.629Z,5.79
2023-12-12T13:54:47.919Z,5.73
2023-12-12T13:57:18.198Z,5.79
2023-12-12T13:59:48.489Z,5.75
2023-12-12T14:02:29.680Z,5.59
2023-12-12T14:05:04.557Z,5.60
2023-12-12T14:07:35.798Z,5.62
2023-12-12T14:10:08.185Z,5.58
2023-12-12T14:12:38.656Z,5.50
2023-12-12T14:15:10.289Z,5.52
2023-12-12T14:17:43.312Z,5.55
2023-12-12T14:20:14.853Z,5.61
2023-12-12T14:22:50.040Z,5.56
2023-12-12T14:25:25.687Z,5.63
2023-12-12T14:27:56.246Z,5.29
2023-12-12T14:30:28.295Z,5.11
2023-12-12T14:33:02.217Z,4.98
2023-12-12T14:35:32.899Z,4.96
2023-12-12T14:38:03.244Z,4.86
2023-12-12T14:40:33.567Z,4.66
2023-12-12T14:43:04.585Z,4.60
2023-12-12T14:45:34.958Z,4.55
2023-12-12T14:48:08.176Z,4.44
2023-12-12T14:50:41.056Z,4.38
2023-12-12T14:53:11.384Z,4.34
2023-12-12T14:55:41.979Z,4.41
2023-12-12T14:58:12.407Z,4.35
2023-12-12T15:00:42.739Z,4.28
2023-12-12T15:03:16.029Z,4.21
2023-12-12T15:05:46.428Z,4.19
2023-12-12T15:08:16.649Z,4.16
2023-12-12T15:10:47.005Z,4.14
2023-12-12T15:13:17.347Z,4.12
2023-12-12T15:15:47.535Z,4.15
2023-12-12T15:18:20.513Z,4.14
2023-12-12T15:20:52.851Z,4.18
2023-12-12T15:23:23.458Z,4.10
2023-12-12T15:25:53.911Z,4.15
2023-12-12T15:28:27.458Z,4.11
2023-12-12T15:30:59.180Z,4.05
2023-12-12T15:33:34.375Z,4.02
2023-12-12T15:36:08.669Z,3.98
2023-12-12T15:38:38.994Z,3.94
2023-12-12T15:41:09.717Z,3.89
2023-12-12T15:43:40.875Z,3.93
2023-12-12T15:46:11.185Z,3.93
2023-12-12T15:48:44.095Z,3.88
2023-12-12T15:51:15.346Z,3.83
2023-12-12T15:53:45.679Z,3.82
2023-12-12T15:56:16.441Z,3.77
2023-12-12T15:58:48.839Z,3.76
2023-12-12T16:01:19.563Z,3.75
2023-12-12T16:03:55.986Z,3.98
2023-12-12T16:06:26.302Z,4.15
2023-12-12T16:08:56.481Z,3.90
2023-12-12T16:11:26.709Z,3.69
2023-12-12T16:13:58.199Z,3.51
2023-12-12T16:16:29.341Z,3.44
2023-12-12T16:19:02.298Z,3.39
2023-12-12T16:21:34.761Z,3.41
2023-12-12T16:24:04.976Z,3.30
2023-12-12T16:26:35.329Z,3.37
2023-12-12T16:29:05.841Z,3.19
2023-12-12T16:31:36.193Z,3.09
2023-12-12T16:34:11.448Z,3.05
2023-12-12T16:36:41.783Z,2.96
2023-12-12T16:39:12.683Z,2.90
2023-12-12T16:41:43.099Z,2.88
2023-12-12T16:44:13.479Z,2.87
2023-12-12T16:46:44.870Z,2.91
2023-12-12T16:49:18.948Z,2.86
2023-12-12T16:51:49.623Z,2.84
2023-12-12T16:54:20.921Z,2.89
2023-12-12T16:56:52.418Z,2.94
2023-12-12T16:59:22.714Z,2.90
2023-12-12T17:01:54.262Z,2.88
2023-12-12T17:04:30.270Z,2.95
2023-12-12T17:07:00.906Z,2.88
2023-12-12T17:09:31.224Z,2.80
2023-12-12T17:12:01.501Z,2.77
2023-12-12T17:14:32.065Z,2.78
2023-12-12T17:17:03.028Z,2.74
2023-12-12T17:19:35.901Z,2.72
2023-12-12T17:22:06.530Z,2.77
2023-12-12T17:24:36.830Z,2.72
2023-12-12T17:27:07.755Z,2.68
2023-12-12T17:29:38.216Z,2.75
2023-12-12T17:32:11.758Z,2.93
2023-12-12T17:34:47.143Z,2.80
2023-12-12T17:37:17.663Z,2.77
2023-12-12T17:39:47.935Z,2.71
2023-12-12T17:42:18.251Z,2.69
2023-12-12T17:44:48.580Z,2.69
2023-12-12T17:47:18.878Z,2.66
2023-12-12T17:49:52.862Z,2.63
2023-12-12T17:52:23.261Z,2.77
2023-12-12T17:54:53.659Z,3.25
2023-12-12T17:57:23.930Z,3.36
2023-12-12T17:59:54.275Z,2.94
2023-12-12T18:02:24.502Z,2.75
2023-12-12T18:04:59.532Z,2.66
2023-12-12T18:07:30.204Z,2.96
2023-12-12T18:10:00.764Z,2.80
2023-12-12T18:12:31.261Z,2.72
2023-12-12T18:15:01.518Z,2.61
2023-12-12T18:17:32.584Z,2.56
2023-12-12T18:20:05.768Z,2.57
2023-12-12T18:22:36.197Z,2.61
2023-12-12T18:25:06.955Z,2.55
2023-12-12T18:27:38.033Z,2.43
2023-12-12T18:30:10.850Z,2.39
2023-12-12T18:32:42.204Z,2.42
2023-12-12T18:35:15.618Z,2.35
2023-12-12T18:37:46.520Z,2.37
2023-12-12T18:40:19.003Z,2.35
2023-12-12T18:42:49.913Z,2.33
2023-12-12T18:45:20.510Z,2.37
2023-12-12T18:47:51.806Z,2.44
2023-12-12T18:50:25.524Z,2.44
2023-12-12T18:52:57.595Z,2.34
2023-12-12T18:55:29.784Z,2.28
2023-12-12T18:58:02.937Z,2.31
2023-12-12T19:00:36.623Z,2.31
2023-12-12T19:03:10.275Z,2.53
2023-12-12T19:05:46.994Z,2.91
2023-12-12T19:08:19.658Z,2.79
2023-12-12T19:10:51.079Z,2.69
2023-12-12T19:13:23.623Z,2.74
2023-12-12T19:15:58.989Z,2.64
2023-12-12T19:18:32.426Z,2.56
2023-12-12T19:21:08.660Z,2.52
2023-12-12T19:23:44.401Z,2.49
2023-12-12T19:26:18.109Z,2.49
2023-12-12T19:28:51.892Z,2.47
2023-12-12T19:31:25.679Z,2.48
2023-12-12T19:33:59.313Z,2.47
2023-12-12T19:36:35.636Z,2.46
2023-12-12T19:39:12.105Z,2.49
2023-12-12T19:41:47.097Z,2.45
2023-12-12T19:44:20.998Z,2.44
2023-12-12T19:46:55.261Z,2.40
2023-12-12T19:49:29.583Z,2.50
2023-12-12T19:52:09.280Z,2.55
2023-12-12T19:54:43.464Z,2.49
2023-12-12T19:57:17.631Z,2.47
2023-12-12T19:59:51.878Z,2.34
2023-12-12T20:02:27.789Z,2.35
2023-12-12T20:05:02.732Z,2.29
2023-12-12T20:07:40.835Z,2.16
2023-12-12T20:10:17.296Z,2.13
2023-12-12T20:12:54.933Z,2.08
2023-12-12T20:15:30.174Z,2.11
2023-12-12T20:18:07.743Z,1.89
2023-12-12T20:20:41.671Z,1.96
2023-12-12T20:23:19.665Z,2.06
2023-12-12T20:25:54.206Z,2.07
2023-12-12T20:28:29.657Z,2.07
2023-12-12T20:31:06.345Z,2.35
2023-12-12T20:33:40.914Z,2.34
2023-12-12T20:36:18.948Z,2.34
2023-12-12T20:38:56.044Z,2.27
2023-12-12T20:41:33.430Z,2.24
2023-12-12T20:44:11.369Z,2.17
2023-12-12T20:46:47.871Z,2.16
2023-12-12T20:49:24.930Z,2.11
2023-12-12T20:52:00.600Z,2.17
2023-12-12T20:54:39.477Z,2.19
2023-12-12T20:57:16.466Z,2.31
2023-12-12T20:59:50.472Z,2.19
2023-12-12T21:02:21.432Z,2.26
2023-12-12T21:05:05.734Z,2.25
2023-12-12T21:07:37.837Z,2.32
2023-12-12T21:10:12.036Z,2.37
2023-12-12T21:12:42.506Z,2.36
2023-12-12T21:15:13.795Z,2.35
2023-12-12T21:17:44.327Z,2.28
2023-12-12T21:20:15.675Z,2.37
2023-12-12T21:22:48.708Z,2.39
2023-12-12T21:25:21.990Z,2.28
2023-12-12T21:27:52.402Z,2.25
2023-12-12T21:30:22.805Z,2.24
2023-12-12T21:32:53.212Z,2.23
2023-12-12T21:35:23.705Z,2.19
2023-12-12T21:37:55.409Z,2.08
2023-12-12T21:40:29.349Z,2.11
2023-12-12T21:42:59.758Z,2.14
2023-12-12T21:45:30.033Z,2.18
2023-12-12T21:48:02.453Z,2.31
2023-12-12T21:50:33.342Z,2.25
2023-12-12T21:53:03.663Z,2.38
2023-12-12T21:55:36.722Z,2.38
2023-12-12T21:58:07.550Z,2.42
2023-12-12T22:00:37.963Z,2.38
2023-12-12T22:03:08.504Z,2.33
2023-12-12T22:05:38.877Z,2.34
2023-12-12T22:08:09.233Z,2.32
2023-12-12T22:10:42.140Z,2.42
2023-12-12T22:13:15.026Z,2.41
2023-12-12T22:15:45.543Z,2.46
2023-12-12T22:18:16.761Z,2.50
2023-12-12T22:20:47.148Z,2.36
2023-12-12T22:23:17.461Z,2.33
2023-12-12T22:25:50.448Z,2.34
2023-12-12T22:28:20.881Z,2.31
2023-12-12T22:30:51.124Z,2.44
2023-12-12T22:33:21.424Z,2.45
2023-12-12T22:35:51.731Z,2.38
2023-12-12T22:38:22.201Z,2.41
2023-12-12T22:40:57.454Z,2.38
2023-12-12T22:43:27.844Z,2.16
2023-12-12T22:45:58.780Z,2.44
2023-12-12T22:48:29.131Z,2.32
2023-12-12T22:50:59.564Z,2.27
2023-12-12T22:53:29.929Z,2.41
2023-12-12T22:56:04.609Z,2.48
2023-12-12T22:58:35.058Z,2.46
2023-12-12T23:01:06.579Z,2.40
2023-12-12T23:03:37.158Z,2.54
2023-12-12T23:06:08.011Z,2.47
2023-12-12T23:08:38.508Z,2.48
2023-12-12T23:11:12.883Z,2.52
2023-12-12T23:13:43.744Z,2.58
2023-12-12T23:16:14.103Z,2.58
2023-12-12T23:18:44.334Z,2.53
2023-12-12T23:21:14.665Z,2.58
2023-12-12T23:23:44.905Z,2.52
2023-12-12T23:26:17.754Z,2.85
2023-12-12T23:28:48.137Z,2.57
2023-12-12T23:31:18.707Z,2.63
2023-12-12T23:33:49.366Z,2.51
2023-12-12T23:36:20.854Z,2.48
2023-12-12T23:38:51.203Z,2.49
2023-12-12T23:41:24.322Z,2.50
2023-12-12T23:43:54.870Z,2.52
2023-12-12T23:46:25.367Z,2.62
2023-12-12T23:48:56.844Z,2.63
2023-12-12T23:51:27.508Z,2.64
2023-12-12T23:53:58.002Z,2.91
2023-12-12T23:56:31.022Z,2.76
2023-12-12T23:59:01.624Z,2.76
